sensor_id;sensor_type;location;lat;lon;timestamp;pressure;altitude;pressure_sealevel;temperature;humidity
5883;BME280;2967;51.488;6.618;2023-04-29T00:01:12;101057.38;;;13.32;100.00
5883;BME280;2967;51.488;6.618;2023-04-29T00:06:16;101061.75;;;13.20;100.00
5883;BME280;2967;51.488;6.618;2023-04-29T00:11:19;101065.50;;;13.18;100.00
5883;BME280;2967;51.488;6.618;2023-04-29T00:16:21;101067.38;;;13.16;100.00
5883;BME280;2967;51.488;6.618;2023-04-29T00:21:25;101064.22;;;13.11;100.00
5883;BME280;2967;51.488;6.618;2023-04-29T00:26:29;101076.75;;;13.09;100.00
5883;BME280;2967;51.488;6.618;2023-04-29T00:31:32;101078.66;;;13.07;100.00
5883;BME280;2967;51.488;6.618;2023-04-29T00:36:36;101084.19;;;13.04;100.00
5883;BME280;2967;51.488;6.618;2023-04-29T00:41:39;101099.81;;;12.96;100.00
5883;BME280;2967;51.488;6.618;2023-04-29T00:46:41;101099.47;;;12.88;100.00
5883;BME280;2967;51.488;6.618;2023-04-29T00:51:46;101108.25;;;12.76;100.00
5883;BME280;2967;51.488;6.618;2023-04-29T00:56:49;101109.03;;;12.78;100.00
5883;BME280;2967;51.488;6.618;2023-04-29T01:01:52;101104.22;;;12.71;100.00
5883;BME280;2967;51.488;6.618;2023-04-29T01:07:08;101114.97;;;12.69;100.00
5883;BME280;2967;51.488;6.618;2023-04-29T01:12:20;101126.31;;;12.71;100.00
5883;BME280;2967;51.488;6.618;2023-04-29T01:17:30;101105.72;;;12.62;100.00
5883;BME280;2967;51.488;6.618;2023-04-29T01:22:37;101120.03;;;12.60;100.00
5883;BME280;2967;51.488;6.618;2023-04-29T01:27:47;101125.66;;;12.55;100.00
5883;BME280;2967;51.488;6.618;2023-04-29T01:32:58;101136.25;;;12.55;100.00
5883;BME280;2967;51.488;6.618;2023-04-29T01:38:15;101138.56;;;12.47;100.00
5883;BME280;2967;51.488;6.618;2023-04-29T01:43:22;101151.00;;;12.47;100.00
5883;BME280;2967;51.488;6.618;2023-04-29T01:48:27;101150.34;;;12.43;100.00
5883;BME280;2967;51.488;6.618;2023-04-29T01:53:30;101156.63;;;12.42;100.00
5883;BME280;2967;51.488;6.618;2023-04-29T01:58:34;101162.44;;;12.47;100.00
5883;BME280;2967;51.488;6.618;2023-04-29T02:04:00;101153.75;;;12.45;100.00
5883;BME280;2967;51.488;6.618;2023-04-29T02:09:03;101166.50;;;12.40;100.00
5883;BME280;2967;51.488;6.618;2023-04-29T02:14:09;101167.97;;;12.44;100.00
5883;BME280;2967;51.488;6.618;2023-04-29T02:19:13;101170.09;;;12.39;100.00
5883;BME280;2967;51.488;6.618;2023-04-29T02:24:15;101175.19;;;12.42;100.00
5883;BME280;2967;51.488;6.618;2023-04-29T02:29:22;101193.31;;;12.36;100.00
5883;BME280;2967;51.488;6.618;2023-04-29T02:34:28;101190.66;;;12.36;100.00
5883;BME280;2967;51.488;6.618;2023-04-29T02:39:31;101193.41;;;12.34;100.00
5883;BME280;2967;51.488;6.618;2023-04-29T02:44:35;101195.31;;;12.32;100.00
5883;BME280;2967;51.488;6.618;2023-04-29T02:49:38;101208.94;;;12.40;100.00
5883;BME280;2967;51.488;6.618;2023-04-29T02:54:42;101207.72;;;12.32;100.00
5883;BME280;2967;51.488;6.618;2023-04-29T02:59:46;101207.19;;;12.27;100.00
5883;BME280;2967;51.488;6.618;2023-04-29T03:04:48;101206.47;;;12.37;100.00
5883;BME280;2967;51.488;6.618;2023-04-29T03:09:51;101210.66;;;12.27;100.00
5883;BME280;2967;51.488;6.618;2023-04-29T03:14:55;101221.94;;;12.31;100.00
5883;BME280;2967;51.488;6.618;2023-04-29T03:19:58;101227.91;;;12.34;100.00
5883;BME280;2967;51.488;6.618;2023-04-29T03:25:01;101239.84;;;12.27;100.00
5883;BME280;2967;51.488;6.618;2023-04-29T03:30:06;101226.41;;;12.16;100.00
5883;BME280;2967;51.488;6.618;2023-04-29T03:35:16;101246.22;;;12.25;100.00
5883;BME280;2967;51.488;6.618;2023-04-29T03:40:37;101248.00;;;12.24;100.00
5883;BME280;2967;51.488;6.618;2023-04-29T03:45:41;101245.00;;;12.16;100.00
5883;BME280;2967;51.488;6.618;2023-04-29T03:50:44;101243.56;;;12.25;100.00
5883;BME280;2967;51.488;6.618;2023-04-29T03:55:47;101261.19;;;12.26;100.00
5883;BME280;2967;51.488;6.618;2023-04-29T04:00:52;101261.47;;;12.21;100.00
5883;BME280;2967;51.488;6.618;2023-04-29T04:05:58;101259.13;;;12.17;100.00
5883;BME280;2967;51.488;6.618;2023-04-29T04:11:01;101261.56;;;12.20;100.00
5883;BME280;2967;51.488;6.618;2023-04-29T04:16:19;101266.13;;;12.18;100.00
5883;BME280;2967;51.488;6.618;2023-04-29T04:21:22;101272.66;;;12.12;100.00
5883;BME280;2967;51.488;6.618;2023-04-29T04:26:33;101269.81;;;12.15;100.00
5883;BME280;2967;51.488;6.618;2023-04-29T04:31:42;101282.91;;;12.18;100.00
5883;BME280;2967;51.488;6.618;2023-04-29T04:36:49;101290.06;;;12.16;100.00
5883;BME280;2967;51.488;6.618;2023-04-29T04:41:51;101284.03;;;12.14;100.00
5883;BME280;2967;51.488;6.618;2023-04-29T04:46:56;101294.91;;;12.24;100.00
5883;BME280;2967;51.488;6.618;2023-04-29T04:52:21;101305.97;;;12.16;100.00
5883;BME280;2967;51.488;6.618;2023-04-29T04:57:35;101314.88;;;12.15;100.00
5883;BME280;2967;51.488;6.618;2023-04-29T05:02:40;101325.69;;;12.12;100.00
5883;BME280;2967;51.488;6.618;2023-04-29T05:07:43;101323.81;;;12.14;100.00
5883;BME280;2967;51.488;6.618;2023-04-29T05:12:46;101333.06;;;12.07;100.00
5883;BME280;2967;51.488;6.618;2023-04-29T05:17:50;101339.34;;;12.06;100.00
5883;BME280;2967;51.488;6.618;2023-04-29T05:22:53;101344.56;;;12.08;100.00
5883;BME280;2967;51.488;6.618;2023-04-29T05:27:56;101349.47;;;12.00;100.00
5883;BME280;2967;51.488;6.618;2023-04-29T05:33:04;101362.91;;;12.11;100.00
5883;BME280;2967;51.488;6.618;2023-04-29T05:38:07;101341.03;;;11.93;100.00
5883;BME280;2967;51.488;6.618;2023-04-29T05:43:14;101368.34;;;12.09;100.00
5883;BME280;2967;51.488;6.618;2023-04-29T05:48:18;101371.53;;;12.00;100.00
5883;BME280;2967;51.488;6.618;2023-04-29T05:53:21;101380.44;;;11.99;100.00
5883;BME280;2967;51.488;6.618;2023-04-29T05:58:24;101389.72;;;12.06;100.00
5883;BME280;2967;51.488;6.618;2023-04-29T06:03:28;101393.16;;;12.08;100.00
5883;BME280;2967;51.488;6.618;2023-04-29T06:08:59;101399.69;;;12.03;100.00
5883;BME280;2967;51.488;6.618;2023-04-29T06:14:04;101406.28;;;12.10;100.00
5883;BME280;2967;51.488;6.618;2023-04-29T06:19:08;101407.72;;;12.15;100.00
5883;BME280;2967;51.488;6.618;2023-04-29T06:24:11;101424.69;;;12.27;100.00
5883;BME280;2967;51.488;6.618;2023-04-29T06:29:13;101432.16;;;12.20;100.00
5883;BME280;2967;51.488;6.618;2023-04-29T06:34:18;101437.59;;;12.33;100.00
5883;BME280;2967;51.488;6.618;2023-04-29T06:39:40;101438.69;;;12.29;100.00
5883;BME280;2967;51.488;6.618;2023-04-29T06:44:52;101458.41;;;12.25;100.00
5883;BME280;2967;51.488;6.618;2023-04-29T06:50:14;101453.38;;;12.34;100.00
5883;BME280;2967;51.488;6.618;2023-04-29T06:55:17;101458.91;;;12.31;100.00
5883;BME280;2967;51.488;6.618;2023-04-29T07:00:20;101466.09;;;12.43;100.00
5883;BME280;2967;51.488;6.618;2023-04-29T07:05:24;101468.56;;;12.46;100.00
5883;BME280;2967;51.488;6.618;2023-04-29T07:10:27;101470.56;;;12.57;100.00
5883;BME280;2967;51.488;6.618;2023-04-29T07:15:32;101480.88;;;12.47;100.00
5883;BME280;2967;51.488;6.618;2023-04-29T07:20:37;101487.63;;;12.53;100.00
5883;BME280;2967;51.488;6.618;2023-04-29T07:25:39;101497.00;;;12.58;100.00
5883;BME280;2967;51.488;6.618;2023-04-29T07:30:42;101492.06;;;12.38;100.00
5883;BME280;2967;51.488;6.618;2023-04-29T07:35:46;101517.53;;;12.41;100.00
5883;BME280;2967;51.488;6.618;2023-04-29T07:40:49;101511.88;;;12.33;100.00
5883;BME280;2967;51.488;6.618;2023-04-29T07:45:52;101519.75;;;12.48;100.00
5883;BME280;2967;51.488;6.618;2023-04-29T07:50:56;101533.19;;;12.31;100.00
5883;BME280;2967;51.488;6.618;2023-04-29T07:55:58;101537.31;;;12.21;100.00
5883;BME280;2967;51.488;6.618;2023-04-29T08:01:04;101542.25;;;12.27;100.00
5883;BME280;2967;51.488;6.618;2023-04-29T08:06:09;101541.59;;;12.24;100.00
5883;BME280;2967;51.488;6.618;2023-04-29T08:11:15;101552.06;;;12.11;100.00
5883;BME280;2967;51.488;6.618;2023-04-29T08:16:17;101556.50;;;12.11;100.00
5883;BME280;2967;51.488;6.618;2023-04-29T08:21:23;101565.41;;;12.10;100.00
5883;BME280;2967;51.488;6.618;2023-04-29T08:26:26;101561.13;;;12.07;100.00
5883;BME280;2967;51.488;6.618;2023-04-29T08:31:28;101571.03;;;12.19;100.00
5883;BME280;2967;51.488;6.618;2023-04-29T08:36:33;101566.03;;;12.29;100.00
5883;BME280;2967;51.488;6.618;2023-04-29T08:41:37;101581.88;;;12.30;100.00
5883;BME280;2967;51.488;6.618;2023-04-29T08:46:40;101580.16;;;12.29;100.00
5883;BME280;2967;51.488;6.618;2023-04-29T08:51:47;101584.03;;;12.24;100.00
5883;BME280;2967;51.488;6.618;2023-04-29T08:56:50;101594.88;;;12.35;100.00
5883;BME280;2967;51.488;6.618;2023-04-29T09:01:54;101548.34;;;12.00;100.00
5883;BME280;2967;51.488;6.618;2023-04-29T09:06:59;101594.22;;;12.45;100.00
5883;BME280;2967;51.488;6.618;2023-04-29T09:12:03;101607.69;;;12.56;100.00
5883;BME280;2967;51.488;6.618;2023-04-29T09:17:06;101612.72;;;12.47;100.00
5883;BME280;2967;51.488;6.618;2023-04-29T09:22:10;101619.03;;;12.44;100.00
5883;BME280;2967;51.488;6.618;2023-04-29T09:27:25;101625.31;;;12.43;100.00
5883;BME280;2967;51.488;6.618;2023-04-29T09:32:28;101621.91;;;12.55;100.00
5883;BME280;2967;51.488;6.618;2023-04-29T09:37:32;101626.47;;;12.67;100.00
5883;BME280;2967;51.488;6.618;2023-04-29T09:42:41;101632.03;;;12.78;100.00
5883;BME280;2967;51.488;6.618;2023-04-29T09:47:44;101636.19;;;12.82;100.00
5883;BME280;2967;51.488;6.618;2023-04-29T09:52:48;101637.53;;;12.89;100.00
5883;BME280;2967;51.488;6.618;2023-04-29T09:57:51;101640.03;;;13.06;100.00
5883;BME280;2967;51.488;6.618;2023-04-29T10:02:55;101645.53;;;13.03;100.00
5883;BME280;2967;51.488;6.618;2023-04-29T10:08:01;101648.78;;;13.22;100.00
5883;BME280;2967;51.488;6.618;2023-04-29T10:13:04;101653.25;;;13.35;100.00
5883;BME280;2967;51.488;6.618;2023-04-29T10:18:13;101653.50;;;13.45;100.00
5883;BME280;2967;51.488;6.618;2023-04-29T10:23:21;101658.53;;;13.63;100.00
5883;BME280;2967;51.488;6.618;2023-04-29T10:28:26;101665.72;;;13.75;100.00
5883;BME280;2967;51.488;6.618;2023-04-29T10:33:34;101660.41;;;13.75;100.00
5883;BME280;2967;51.488;6.618;2023-04-29T10:38:41;101670.84;;;14.05;100.00
5883;BME280;2967;51.488;6.618;2023-04-29T10:43:47;101676.75;;;14.10;100.00
5883;BME280;2967;51.488;6.618;2023-04-29T10:48:54;101673.00;;;14.12;100.00
5883;BME280;2967;51.488;6.618;2023-04-29T10:54:00;101680.63;;;14.18;100.00
5883;BME280;2967;51.488;6.618;2023-04-29T10:59:04;101671.69;;;14.19;100.00
5883;BME280;2967;51.488;6.618;2023-04-29T11:04:07;101643.66;;;14.14;100.00
5883;BME280;2967;51.488;6.618;2023-04-29T11:09:18;101671.03;;;14.42;100.00
5883;BME280;2967;51.488;6.618;2023-04-29T11:14:23;101695.78;;;14.57;100.00
5883;BME280;2967;51.488;6.618;2023-04-29T11:19:30;101688.16;;;14.77;100.00
5883;BME280;2967;51.488;6.618;2023-04-29T11:24:35;101689.88;;;14.78;100.00
5883;BME280;2967;51.488;6.618;2023-04-29T11:29:38;101686.38;;;15.03;100.00
5883;BME280;2967;51.488;6.618;2023-04-29T11:34:41;101688.09;;;15.16;100.00
5883;BME280;2967;51.488;6.618;2023-04-29T11:39:45;101687.59;;;15.36;100.00
5883;BME280;2967;51.488;6.618;2023-04-29T11:44:51;101681.97;;;15.77;100.00
5883;BME280;2967;51.488;6.618;2023-04-29T11:50:01;101659.97;;;15.86;100.00
5883;BME280;2967;51.488;6.618;2023-04-29T11:55:07;101680.97;;;16.49;100.00
5883;BME280;2967;51.488;6.618;2023-04-29T12:00:11;101693.47;;;16.83;100.00
5883;BME280;2967;51.488;6.618;2023-04-29T12:05:15;101679.84;;;16.75;100.00
5883;BME280;2967;51.488;6.618;2023-04-29T12:10:21;101681.22;;;16.57;100.00
5883;BME280;2967;51.488;6.618;2023-04-29T12:15:24;101683.09;;;16.21;100.00
5883;BME280;2967;51.488;6.618;2023-04-29T12:20:27;101692.38;;;15.92;100.00
5883;BME280;2967;51.488;6.618;2023-04-29T12:25:31;101689.84;;;15.91;100.00
5883;BME280;2967;51.488;6.618;2023-04-29T12:30:34;101693.59;;;15.76;100.00
5883;BME280;2967;51.488;6.618;2023-04-29T12:35:36;101688.16;;;15.77;100.00
5883;BME280;2967;51.488;6.618;2023-04-29T12:40:40;101697.63;;;15.81;100.00
5883;BME280;2967;51.488;6.618;2023-04-29T12:45:43;101687.50;;;15.86;100.00
5883;BME280;2967;51.488;6.618;2023-04-29T12:50:48;101690.75;;;16.02;100.00
5883;BME280;2967;51.488;6.618;2023-04-29T12:55:53;101694.28;;;16.02;100.00
5883;BME280;2967;51.488;6.618;2023-04-29T13:00:56;101668.25;;;15.93;100.00
5883;BME280;2967;51.488;6.618;2023-04-29T13:05:59;101688.13;;;16.13;100.00
5883;BME280;2967;51.488;6.618;2023-04-29T13:11:04;101698.69;;;16.27;100.00
5883;BME280;2967;51.488;6.618;2023-04-29T13:16:08;101699.06;;;16.33;100.00
5883;BME280;2967;51.488;6.618;2023-04-29T13:21:11;101710.19;;;16.40;100.00
5883;BME280;2967;51.488;6.618;2023-04-29T13:26:17;101712.75;;;16.41;100.00
5883;BME280;2967;51.488;6.618;2023-04-29T13:31:19;101712.41;;;16.33;100.00
5883;BME280;2967;51.488;6.618;2023-04-29T13:36:22;101713.91;;;16.37;98.39
5883;BME280;2967;51.488;6.618;2023-04-29T13:41:27;101713.38;;;16.32;100.00
5883;BME280;2967;51.488;6.618;2023-04-29T13:46:30;101706.78;;;16.38;100.00
5883;BME280;2967;51.488;6.618;2023-04-29T13:51:33;101706.59;;;16.52;100.00
5883;BME280;2967;51.488;6.618;2023-04-29T13:56:57;101710.56;;;16.46;97.73
5883;BME280;2967;51.488;6.618;2023-04-29T14:02:02;101702.59;;;16.57;99.48
5883;BME280;2967;51.488;6.618;2023-04-29T14:07:08;101710.84;;;16.54;100.00
5883;BME280;2967;51.488;6.618;2023-04-29T14:12:12;101718.88;;;16.54;98.53
5883;BME280;2967;51.488;6.618;2023-04-29T14:17:17;101710.56;;;16.46;100.00
5883;BME280;2967;51.488;6.618;2023-04-29T14:22:19;101719.41;;;16.36;100.00
5883;BME280;2967;51.488;6.618;2023-04-29T14:27:24;101719.56;;;16.33;99.64
5883;BME280;2967;51.488;6.618;2023-04-29T14:32:27;101726.75;;;16.32;100.00
5883;BME280;2967;51.488;6.618;2023-04-29T14:37:30;101723.28;;;16.43;100.00
5883;BME280;2967;51.488;6.618;2023-04-29T14:42:34;101733.81;;;16.57;98.85
5883;BME280;2967;51.488;6.618;2023-04-29T14:47:37;101738.38;;;16.78;96.43
5883;BME280;2967;51.488;6.618;2023-04-29T14:52:40;101738.91;;;16.83;96.41
5883;BME280;2967;51.488;6.618;2023-04-29T14:57:44;101736.19;;;16.72;96.39
5883;BME280;2967;51.488;6.618;2023-04-29T15:02:47;101740.69;;;16.72;97.37
5883;BME280;2967;51.488;6.618;2023-04-29T15:07:50;101750.06;;;16.77;97.70
5883;BME280;2967;51.488;6.618;2023-04-29T15:12:54;101741.47;;;16.85;96.74
5883;BME280;2967;51.488;6.618;2023-04-29T15:17:57;101737.66;;;17.11;93.43
5883;BME280;2967;51.488;6.618;2023-04-29T15:23:02;101739.31;;;17.01;94.40
5883;BME280;2967;51.488;6.618;2023-04-29T15:28:06;101741.88;;;16.91;98.07
5883;BME280;2967;51.488;6.618;2023-04-29T15:33:09;101743.47;;;16.94;95.63
5883;BME280;2967;51.488;6.618;2023-04-29T15:38:12;101745.81;;;16.75;94.95
5883;BME280;2967;51.488;6.618;2023-04-29T15:43:15;101746.22;;;16.58;94.11
5883;BME280;2967;51.488;6.618;2023-04-29T15:48:19;101753.94;;;16.50;97.00
5883;BME280;2967;51.488;6.618;2023-04-29T15:53:22;101753.13;;;16.37;97.56
5883;BME280;2967;51.488;6.618;2023-04-29T15:58:26;101730.84;;;16.13;98.42
5883;BME280;2967;51.488;6.618;2023-04-29T16:03:29;101752.66;;;16.19;98.28
5883;BME280;2967;51.488;6.618;2023-04-29T16:08:31;101759.28;;;16.14;97.72
5883;BME280;2967;51.488;6.618;2023-04-29T16:13:35;101755.44;;;16.05;97.96
5883;BME280;2967;51.488;6.618;2023-04-29T16:18:38;101773.63;;;16.00;97.72
5883;BME280;2967;51.488;6.618;2023-04-29T16:23:42;101772.44;;;15.92;99.71
5883;BME280;2967;51.488;6.618;2023-04-29T16:28:46;101768.53;;;15.85;98.64
5883;BME280;2967;51.488;6.618;2023-04-29T16:33:49;101760.72;;;15.82;99.12
5883;BME280;2967;51.488;6.618;2023-04-29T16:38:52;101765.44;;;15.79;98.62
5883;BME280;2967;51.488;6.618;2023-04-29T16:43:56;101767.97;;;15.80;99.94
5883;BME280;2967;51.488;6.618;2023-04-29T16:48:59;101767.25;;;15.78;99.58
5883;BME280;2967;51.488;6.618;2023-04-29T16:54:02;101772.47;;;15.80;100.00
5883;BME280;2967;51.488;6.618;2023-04-29T16:59:06;101770.66;;;15.80;100.00
5883;BME280;2967;51.488;6.618;2023-04-29T17:04:11;101770.78;;;15.79;100.00
5883;BME280;2967;51.488;6.618;2023-04-29T17:09:15;101775.34;;;15.77;100.00
5883;BME280;2967;51.488;6.618;2023-04-29T17:14:19;101709.56;;;15.40;100.00
5883;BME280;2967;51.488;6.618;2023-04-29T17:19:22;101779.94;;;15.75;100.00
5883;BME280;2967;51.488;6.618;2023-04-29T17:24:24;101776.53;;;15.73;100.00
5883;BME280;2967;51.488;6.618;2023-04-29T17:29:29;101777.59;;;15.70;100.00
5883;BME280;2967;51.488;6.618;2023-04-29T17:34:33;101773.31;;;15.68;100.00
5883;BME280;2967;51.488;6.618;2023-04-29T17:39:37;101777.16;;;15.64;100.00
5883;BME280;2967;51.488;6.618;2023-04-29T17:44:41;101783.69;;;15.60;100.00
5883;BME280;2967;51.488;6.618;2023-04-29T17:49:44;101786.56;;;15.57;100.00
5883;BME280;2967;51.488;6.618;2023-04-29T17:54:47;101780.16;;;15.47;100.00
5883;BME280;2967;51.488;6.618;2023-04-29T17:59:51;101771.38;;;15.32;100.00
5883;BME280;2967;51.488;6.618;2023-04-29T18:04:54;101795.06;;;15.37;100.00
5883;BME280;2967;51.488;6.618;2023-04-29T18:09:57;101793.78;;;15.30;100.00
5883;BME280;2967;51.488;6.618;2023-04-29T18:15:03;101792.06;;;15.29;100.00
5883;BME280;2967;51.488;6.618;2023-04-29T18:20:07;101795.13;;;15.23;100.00
5883;BME280;2967;51.488;6.618;2023-04-29T18:25:11;101798.97;;;15.19;100.00
5883;BME280;2967;51.488;6.618;2023-04-29T18:30:15;101721.31;;;14.73;100.00
5883;BME280;2967;51.488;6.618;2023-04-29T18:35:18;101793.50;;;15.08;100.00
5883;BME280;2967;51.488;6.618;2023-04-29T18:40:20;101724.09;;;14.58;100.00
5883;BME280;2967;51.488;6.618;2023-04-29T18:45:25;101796.69;;;15.00;100.00
5883;BME280;2967;51.488;6.618;2023-04-29T18:50:27;101799.88;;;14.93;100.00
5883;BME280;2967;51.488;6.618;2023-04-29T18:55:30;101800.25;;;14.87;100.00
5883;BME280;2967;51.488;6.618;2023-04-29T19:00:34;101812.09;;;14.83;100.00
5883;BME280;2967;51.488;6.618;2023-04-29T19:05:37;101803.22;;;14.70;100.00
5883;BME280;2967;51.488;6.618;2023-04-29T19:10:39;101808.09;;;14.63;100.00
5883;BME280;2967;51.488;6.618;2023-04-29T19:15:43;101827.31;;;14.54;100.00
5883;BME280;2967;51.488;6.618;2023-04-29T19:20:50;101825.03;;;14.48;100.00
5883;BME280;2967;51.488;6.618;2023-04-29T19:25:53;101831.03;;;14.38;100.00
5883;BME280;2967;51.488;6.618;2023-04-29T19:30:57;101826.03;;;14.33;100.00
5883;BME280;2967;51.488;6.618;2023-04-29T19:36:01;101834.41;;;14.27;100.00
5883;BME280;2967;51.488;6.618;2023-04-29T19:41:04;101825.84;;;14.08;100.00
5883;BME280;2967;51.488;6.618;2023-04-29T19:46:10;101824.97;;;14.08;100.00
5883;BME280;2967;51.488;6.618;2023-04-29T19:51:13;101826.88;;;14.06;100.00
5883;BME280;2967;51.488;6.618;2023-04-29T19:56:16;101835.06;;;13.89;100.00
5883;BME280;2967;51.488;6.618;2023-04-29T20:01:21;101821.94;;;13.72;100.00
5883;BME280;2967;51.488;6.618;2023-04-29T20:06:24;101842.84;;;13.78;100.00
5883;BME280;2967;51.488;6.618;2023-04-29T20:11:27;101855.84;;;13.68;100.00
5883;BME280;2967;51.488;6.618;2023-04-29T20:16:31;101862.31;;;13.64;100.00
5883;BME280;2967;51.488;6.618;2023-04-29T20:21:37;101872.47;;;13.58;100.00
5883;BME280;2967;51.488;6.618;2023-04-29T20:26:42;101870.91;;;13.54;100.00
5883;BME280;2967;51.488;6.618;2023-04-29T20:31:46;101876.09;;;13.41;100.00
5883;BME280;2967;51.488;6.618;2023-04-29T20:36:48;101871.63;;;13.28;100.00
5883;BME280;2967;51.488;6.618;2023-04-29T20:41:51;101885.44;;;13.19;100.00
5883;BME280;2967;51.488;6.618;2023-04-29T20:46:57;101886.88;;;13.24;100.00
5883;BME280;2967;51.488;6.618;2023-04-29T20:52:00;101893.44;;;13.33;100.00
5883;BME280;2967;51.488;6.618;2023-04-29T20:57:03;101898.94;;;13.30;100.00
5883;BME280;2967;51.488;6.618;2023-04-29T21:02:07;101901.69;;;13.28;100.00
5883;BME280;2967;51.488;6.618;2023-04-29T21:07:10;101897.59;;;13.23;100.00
5883;BME280;2967;51.488;6.618;2023-04-29T21:12:13;101906.00;;;13.16;100.00
5883;BME280;2967;51.488;6.618;2023-04-29T21:17:17;101908.06;;;13.11;100.00
5883;BME280;2967;51.488;6.618;2023-04-29T21:22:20;101917.97;;;12.92;100.00
5883;BME280;2967;51.488;6.618;2023-04-29T21:27:22;101920.91;;;12.87;100.00
5883;BME280;2967;51.488;6.618;2023-04-29T21:32:26;101904.63;;;12.62;100.00
5883;BME280;2967;51.488;6.618;2023-04-29T21:37:30;101942.00;;;12.75;100.00
5883;BME280;2967;51.488;6.618;2023-04-29T21:42:34;101935.72;;;12.60;100.00
5883;BME280;2967;51.488;6.618;2023-04-29T21:47:38;101945.09;;;12.35;100.00
5883;BME280;2967;51.488;6.618;2023-04-29T21:52:41;101949.09;;;12.26;100.00
5883;BME280;2967;51.488;6.618;2023-04-29T21:57:44;101949.09;;;12.26;100.00
5883;BME280;2967;51.488;6.618;2023-04-29T22:02:48;101949.03;;;12.11;100.00
5883;BME280;2967;51.488;6.618;2023-04-29T22:07:50;101959.41;;;12.15;100.00
5883;BME280;2967;51.488;6.618;2023-04-29T22:12:53;101935.13;;;11.90;100.00
5883;BME280;2967;51.488;6.618;2023-04-29T22:17:57;101962.88;;;12.00;100.00
5883;BME280;2967;51.488;6.618;2023-04-29T22:23:00;101972.13;;;12.09;100.00
5883;BME280;2967;51.488;6.618;2023-04-29T22:28:03;101977.69;;;11.87;100.00
5883;BME280;2967;51.488;6.618;2023-04-29T22:33:07;101980.59;;;11.83;100.00
5883;BME280;2967;51.488;6.618;2023-04-29T22:38:10;101975.66;;;11.92;100.00
5883;BME280;2967;51.488;6.618;2023-04-29T22:43:13;101963.75;;;11.84;100.00
5883;BME280;2967;51.488;6.618;2023-04-29T22:48:17;101991.88;;;12.03;100.00
5883;BME280;2967;51.488;6.618;2023-04-29T22:53:20;102001.72;;;12.01;100.00
5883;BME280;2967;51.488;6.618;2023-04-29T22:58:23;101996.34;;;12.03;100.00
5883;BME280;2967;51.488;6.618;2023-04-29T23:03:27;101998.53;;;11.95;100.00
5883;BME280;2967;51.488;6.618;2023-04-29T23:08:30;102004.78;;;11.94;100.00
5883;BME280;2967;51.488;6.618;2023-04-29T23:13:33;102005.84;;;11.90;100.00
5883;BME280;2967;51.488;6.618;2023-04-29T23:18:37;102005.31;;;11.83;100.00
5883;BME280;2967;51.488;6.618;2023-04-29T23:23:40;102018.19;;;11.74;100.00
5883;BME280;2967;51.488;6.618;2023-04-29T23:28:42;102009.41;;;11.72;100.00
5883;BME280;2967;51.488;6.618;2023-04-29T23:33:46;102016.75;;;11.67;100.00
5883;BME280;2967;51.488;6.618;2023-04-29T23:38:49;102018.16;;;11.55;100.00
5883;BME280;2967;51.488;6.618;2023-04-29T23:43:51;102016.47;;;11.54;100.00
5883;BME280;2967;51.488;6.618;2023-04-29T23:48:57;102016.56;;;11.53;100.00
5883;BME280;2967;51.488;6.618;2023-04-29T23:54:00;102016.25;;;11.23;100.00
5883;BME280;2967;51.488;6.618;2023-04-29T23:59:02;102029.19;;;11.29;100.00
